»·PEaware :: N321TB KVCV-KHND

N321TB :: KVCV-KHND

FLIGHT INFORMATION

Flight Status: Arrived
Operator: Privately registered:
United States
More flights under this callsign
Pilot: Martin K. (31672)
Aircraft: CESSNA 172 SKYHAWK
(C172)
More flights by this aircraft type
Origin: KVCV Socal Logistics
United States
Destination: KHND Henderson
United States
More flights between these airports :: More routes between these airports
Route: +
File this flight plan on PilotEdge
Remarks:
Altitude:
(Current/Filed)
7,500ft
Speed:
(Current/Filed)
0kts
Departed: 10-Nov-20 12:55 PM
Arrived: 10-Nov-20 02:14 PM
Distance/Time
Traveled:
138nm/1:18
Distance/Time
To Go:
Arrived

Flight Plot

Page will automatically refresh every two minutes.

Flight plan parsing failed; only flown route is shown


Map Options




Map Legend


Flown Route
Filed Route
Departure Airport
Arrival Airport
Navaid (VOR, NDB)
Fix

Horizontal Profiles

Position Reports

Time Latitude Longitude Heading Altitude Ground
Speed
10-Nov-20 12:47 34.591874 -117.369190 179 2868ft 0kts
10-Nov-20 12:48 34.591874 -117.369190 179 2868ft 0kts
10-Nov-20 12:49 34.591874 -117.369190 179 2868ft 0kts
10-Nov-20 12:50 34.591874 -117.369190 179 2868ft 0kts
10-Nov-20 12:51 34.591874 -117.369190 179 2868ft 0kts
10-Nov-20 12:52 34.593416 -117.369016 89 2865ft 15kts
10-Nov-20 12:53 34.597543 -117.366935 12 2854ft 21kts
10-Nov-20 12:54 34.599131 -117.366602 8 2851ft 0kts
10-Nov-20 12:55 34.597120 -117.370630 223 2860ft 74kts
10-Nov-20 12:56 34.580068 -117.391290 225 3494ft 94kts
10-Nov-20 12:57 34.558615 -117.408571 150 4215ft 102kts
10-Nov-20 12:58 34.563944 -117.380584 39 4947ft 100kts
10-Nov-20 12:59 34.589093 -117.367504 4 5641ft 101kts
10-Nov-20 12:59 34.606455 -117.350062 59 6174ft 104kts
10-Nov-20 13:01 34.622044 -117.313402 62 6895ft 105kts
10-Nov-20 13:02 34.635047 -117.281572 51 7433ft 102kts
10-Nov-20 13:03 34.653646 -117.253995 46 7780ft 109kts
10-Nov-20 13:03 34.668219 -117.224414 60 7558ft 126kts
10-Nov-20 13:04 34.682135 -117.185764 64 7534ft 122kts
10-Nov-20 13:06 34.697373 -117.141042 62 7517ft 123kts
10-Nov-20 13:06 34.709206 -117.109539 60 7511ft 122kts
10-Nov-20 13:08 34.730889 -117.069626 53 7511ft 121kts
10-Nov-20 13:08 34.745970 -117.040925 55 7511ft 121kts
10-Nov-20 13:09 34.763353 -117.005964 55 7511ft 120kts
10-Nov-20 13:10 34.780449 -116.970567 56 7495ft 120kts
10-Nov-20 13:11 34.797235 -116.935269 56 7491ft 120kts
10-Nov-20 13:12 34.813892 -116.900066 55 7487ft 120kts
10-Nov-20 13:13 34.830453 -116.864837 55 7484ft 119kts
10-Nov-20 13:14 34.846978 -116.829658 55 7484ft 119kts
10-Nov-20 13:15 34.863952 -116.795070 54 7484ft 119kts
10-Nov-20 13:16 34.880551 -116.760061 56 7484ft 119kts
10-Nov-20 13:17 34.896713 -116.724635 56 7484ft 119kts
10-Nov-20 13:18 34.911806 -116.689102 58 7538ft 118kts
10-Nov-20 13:19 34.927132 -116.652518 58 7464ft 120kts
10-Nov-20 13:20 34.941833 -116.616104 50 7474ft 117kts
10-Nov-20 13:21 34.959754 -116.582579 50 7474ft 117kts
10-Nov-20 13:22 34.980850 -116.552605 45 7477ft 115kts
10-Nov-20 13:23 35.001603 -116.523527 46 7521ft 113kts
10-Nov-20 13:24 35.022244 -116.494582 47 7525ft 112kts
10-Nov-20 13:25 35.042776 -116.465805 48 7530ft 112kts
10-Nov-20 13:26 35.063159 -116.437207 49 7534ft 111kts
10-Nov-20 13:27 35.083551 -116.408568 50 7537ft 112kts
10-Nov-20 13:28 35.103977 -116.379748 50 7539ft 112kts
10-Nov-20 13:29 35.124447 -116.350900 50 7539ft 112kts
10-Nov-20 13:30 35.145132 -116.321767 51 7518ft 114kts
10-Nov-20 13:31 35.165849 -116.292526 51 7514ft 113kts
10-Nov-20 13:32 35.186520 -116.263347 51 7514ft 113kts
10-Nov-20 13:33 35.207142 -116.234214 51 7514ft 113kts
10-Nov-20 13:34 35.227793 -116.205028 51 7514ft 113kts
10-Nov-20 13:35 35.248466 -116.175769 51 7514ft 113kts
10-Nov-20 13:36 35.269174 -116.146472 51 7514ft 114kts
10-Nov-20 13:37 35.289968 -116.117004 51 7513ft 114kts
10-Nov-20 13:38 35.310831 -116.087390 51 7513ft 114kts
10-Nov-20 13:39 35.331602 -116.057911 51 7513ft 114kts
10-Nov-20 13:40 35.352422 -116.028357 51 7513ft 114kts
10-Nov-20 13:41 35.373290 -115.998710 51 7513ft 114kts
10-Nov-20 13:42 35.394072 -115.969160 51 7513ft 114kts
10-Nov-20 13:43 35.411794 -115.937166 63 7513ft 113kts
10-Nov-20 13:44 35.418982 -115.899840 76 7513ft 113kts
10-Nov-20 13:45 35.424304 -115.861588 80 7513ft 114kts
10-Nov-20 13:46 35.427837 -115.822503 80 7513ft 115kts
10-Nov-20 13:47 35.431196 -115.782955 78 7513ft 117kts
10-Nov-20 13:48 35.435184 -115.742809 78 7513ft 119kts
10-Nov-20 13:49 35.438723 -115.705405 78 7513ft 122kts
10-Nov-20 13:50 35.443932 -115.663842 75 7493ft 123kts
10-Nov-20 13:51 35.451411 -115.622874 71 7493ft 123kts
10-Nov-20 13:52 35.459802 -115.582209 71 7493ft 122kts
10-Nov-20 13:53 35.468217 -115.541671 70 7493ft 122kts
10-Nov-20 13:54 35.489221 -115.511806 37 7493ft 118kts
10-Nov-20 13:55 35.513262 -115.484211 40 7493ft 118kts
10-Nov-20 13:56 35.536701 -115.455772 41 7493ft 118kts
10-Nov-20 13:57 35.559988 -115.427123 41 7492ft 118kts
10-Nov-20 13:58 35.583201 -115.398438 41 7490ft 118kts
10-Nov-20 13:59 35.606398 -115.369748 41 7489ft 118kts
10-Nov-20 14:00 35.629235 -115.340399 46 7489ft 119kts
10-Nov-20 14:01 35.650096 -115.308766 47 7487ft 119kts
10-Nov-20 14:02 35.670946 -115.276994 47 7484ft 119kts
10-Nov-20 14:03 35.692134 -115.244707 47 7339ft 127kts
10-Nov-20 14:04 35.714860 -115.209932 48 6878ft 132kts
10-Nov-20 14:05 35.737972 -115.174593 48 6425ft 129kts
10-Nov-20 14:06 35.760234 -115.142467 29 6352ft 123kts
10-Nov-20 14:07 35.795178 -115.136765 0 5855ft 130kts
10-Nov-20 14:08 35.831575 -115.136435 0 5353ft 132kts
10-Nov-20 14:09 35.868350 -115.136206 0 4715ft 132kts
10-Nov-20 14:10 35.902244 -115.135931 1 4192ft 112kts
10-Nov-20 14:11 35.933336 -115.135926 0 3322ft 109kts
10-Nov-20 14:12 35.960694 -115.135576 0 2571ft 83kts
10-Nov-20 14:13 35.970952 -115.136233 289 2448ft 0kts
10-Nov-20 14:14 35.970960 -115.136570 264 2447ft 12kts
10-Nov-20 14:15 35.974430 -115.137658 269 2429ft 13kts
10-Nov-20 14:16 35.974765 -115.138439 359 2425ft 0kts
10-Nov-20 14:17 35.974765 -115.138439 359 2425ft 0kts
10-Nov-20 14:18 35.974765 -115.138439 359 2425ft 0kts
10-Nov-20 14:19 35.974765 -115.138439 359 2425ft 0kts
10-Nov-20 14:20 35.974765 -115.138439 359 2425ft 0kts
10-Nov-20 14:21 35.974765 -115.138439 359 2425ft 0kts
10-Nov-20 14:22 35.974765 -115.138439 359 2425ft 0kts
10-Nov-20 14:23 35.974765 -115.138439 359 2425ft 0kts
10-Nov-20 14:24 35.974765 -115.138439 359 2425ft 0kts
10-Nov-20 14:25 35.974765 -115.138439 359 2425ft 0kts
10-Nov-20 14:26 35.974765 -115.138439 359 2425ft 0kts
10-Nov-20 14:27 35.974765 -115.138439 359 2425ft 0kts

Navigation Log

Ident Type
Flight plan parsing failed, navigation log unavailable